sensor_id;sensor_type;location;lat;lon;timestamp;temperature;humidity
52275;DHT22;38228;50.940;4.024;2022-12-29T00:02:04;11.40;99.90
52275;DHT22;38228;50.940;4.024;2022-12-29T00:04:30;11.40;99.90
52275;DHT22;38228;50.940;4.024;2022-12-29T00:06:55;11.40;99.90
52275;DHT22;38228;50.940;4.024;2022-12-29T00:09:21;11.40;99.90
52275;DHT22;38228;50.940;4.024;2022-12-29T00:11:46;11.30;99.90
52275;DHT22;38228;50.940;4.024;2022-12-29T00:14:12;11.30;99.90
52275;DHT22;38228;50.940;4.024;2022-12-29T00:16:56;11.30;99.90
52275;DHT22;38228;50.940;4.024;2022-12-29T00:19:22;11.30;99.90
52275;DHT22;38228;50.940;4.024;2022-12-29T00:22:08;11.40;99.90
52275;DHT22;38228;50.940;4.024;2022-12-29T00:24:53;11.40;99.90
52275;DHT22;38228;50.940;4.024;2022-12-29T00:27:18;11.50;99.90
52275;DHT22;38228;50.940;4.024;2022-12-29T00:30:07;11.50;99.90
52275;DHT22;38228;50.940;4.024;2022-12-29T00:32:52;11.40;99.90
52275;DHT22;38228;50.940;4.024;2022-12-29T00:35:43;11.50;99.90
52275;DHT22;38228;50.940;4.024;2022-12-29T00:38:10;11.50;99.90
52275;DHT22;38228;50.940;4.024;2022-12-29T00:40:54;11.50;99.90
52275;DHT22;38228;50.940;4.024;2022-12-29T00:43:38;11.40;99.90
52275;DHT22;38228;50.940;4.024;2022-12-29T00:46:22;11.50;99.90
52275;DHT22;38228;50.940;4.024;2022-12-29T00:48:48;11.50;99.90
52275;DHT22;38228;50.940;4.024;2022-12-29T00:51:31;11.50;99.90
52275;DHT22;38228;50.940;4.024;2022-12-29T00:53:57;11.50;99.90
52275;DHT22;38228;50.940;4.024;2022-12-29T00:56:22;11.50;99.90
52275;DHT22;38228;50.940;4.024;2022-12-29T00:58:48;11.60;99.90
52275;DHT22;38228;50.940;4.024;2022-12-29T01:01:13;11.70;99.90
52275;DHT22;38228;50.940;4.024;2022-12-29T01:03:39;11.70;99.90
52275;DHT22;38228;50.940;4.024;2022-12-29T01:06:08;11.70;99.90
52275;DHT22;38228;50.940;4.024;2022-12-29T01:08:34;11.70;99.90
52275;DHT22;38228;50.940;4.024;2022-12-29T01:11:00;11.70;99.90
52275;DHT22;38228;50.940;4.024;2022-12-29T01:13:26;11.80;99.90
52275;DHT22;38228;50.940;4.024;2022-12-29T01:15:52;11.70;99.90
52275;DHT22;38228;50.940;4.024;2022-12-29T01:18:18;11.70;99.90
52275;DHT22;38228;50.940;4.024;2022-12-29T01:20:44;11.70;99.90
52275;DHT22;38228;50.940;4.024;2022-12-29T01:23:10;11.60;99.90
52275;DHT22;38228;50.940;4.024;2022-12-29T01:25:35;11.50;99.90
52275;DHT22;38228;50.940;4.024;2022-12-29T01:28:01;11.50;99.90
52275;DHT22;38228;50.940;4.024;2022-12-29T01:30:26;11.60;99.90
52275;DHT22;38228;50.940;4.024;2022-12-29T01:32:52;11.50;99.90
52275;DHT22;38228;50.940;4.024;2022-12-29T01:35:17;11.50;99.90
52275;DHT22;38228;50.940;4.024;2022-12-29T01:37:43;11.40;99.90
52275;DHT22;38228;50.940;4.024;2022-12-29T01:40:09;11.50;99.90
52275;DHT22;38228;50.940;4.024;2022-12-29T01:42:34;11.50;99.90
52275;DHT22;38228;50.940;4.024;2022-12-29T01:45:08;11.40;99.90
52275;DHT22;38228;50.940;4.024;2022-12-29T01:47:36;11.50;99.90
52275;DHT22;38228;50.940;4.024;2022-12-29T01:50:36;11.50;99.90
52275;DHT22;38228;50.940;4.024;2022-12-29T01:55:27;11.40;99.90
52275;DHT22;38228;50.940;4.024;2022-12-29T01:57:54;11.40;99.90
52275;DHT22;38228;50.940;4.024;2022-12-29T02:00:20;11.30;99.90
52275;DHT22;38228;50.940;4.024;2022-12-29T02:02:56;11.30;99.90
52275;DHT22;38228;50.940;4.024;2022-12-29T02:05:27;11.40;99.90
52275;DHT22;38228;50.940;4.024;2022-12-29T02:07:53;11.40;99.90
52275;DHT22;38228;50.940;4.024;2022-12-29T02:10:20;11.40;99.90
52275;DHT22;38228;50.940;4.024;2022-12-29T02:12:46;11.40;99.90
52275;DHT22;38228;50.940;4.024;2022-12-29T02:15:12;11.30;99.90
52275;DHT22;38228;50.940;4.024;2022-12-29T02:22:49;11.20;99.90
52275;DHT22;38228;50.940;4.024;2022-12-29T02:40:39;11.10;99.90
52275;DHT22;38228;50.940;4.024;2022-12-29T02:51:05;11.00;99.90
52275;DHT22;38228;50.940;4.024;2022-12-29T02:53:33;11.00;99.90
52275;DHT22;38228;50.940;4.024;2022-12-29T02:56:18;11.00;99.90
52275;DHT22;38228;50.940;4.024;2022-12-29T02:58:43;11.00;99.90
52275;DHT22;38228;50.940;4.024;2022-12-29T03:01:23;11.00;99.90
52275;DHT22;38228;50.940;4.024;2022-12-29T03:06:30;10.90;99.90
52275;DHT22;38228;50.940;4.024;2022-12-29T03:09:12;10.90;99.90
52275;DHT22;38228;50.940;4.024;2022-12-29T03:12:15;10.80;99.90
52275;DHT22;38228;50.940;4.024;2022-12-29T03:14:33;10.70;99.90
52275;DHT22;38228;50.940;4.024;2022-12-29T03:17:23;10.70;99.90
52275;DHT22;38228;50.940;4.024;2022-12-29T03:19:49;10.60;99.90
52275;DHT22;38228;50.940;4.024;2022-12-29T03:22:20;10.60;99.90
52275;DHT22;38228;50.940;4.024;2022-12-29T03:25:00;10.70;99.90
52275;DHT22;38228;50.940;4.024;2022-12-29T03:27:39;10.70;99.90
52275;DHT22;38228;50.940;4.024;2022-12-29T03:30:05;10.60;99.90
52275;DHT22;38228;50.940;4.024;2022-12-29T03:32:36;10.60;99.90
52275;DHT22;38228;50.940;4.024;2022-12-29T03:35:03;10.60;99.90
52275;DHT22;38228;50.940;4.024;2022-12-29T03:37:37;10.50;99.90
52275;DHT22;38228;50.940;4.024;2022-12-29T03:40:04;10.50;99.90
52275;DHT22;38228;50.940;4.024;2022-12-29T03:42:30;10.50;99.90
52275;DHT22;38228;50.940;4.024;2022-12-29T03:44:56;10.40;99.90
52275;DHT22;38228;50.940;4.024;2022-12-29T03:47:22;10.40;99.90
52275;DHT22;38228;50.940;4.024;2022-12-29T03:49:48;10.40;99.90
52275;DHT22;38228;50.940;4.024;2022-12-29T03:52:14;10.40;99.90
52275;DHT22;38228;50.940;4.024;2022-12-29T03:54:39;10.40;99.90
52275;DHT22;38228;50.940;4.024;2022-12-29T03:57:05;10.40;99.90
52275;DHT22;38228;50.940;4.024;2022-12-29T03:59:30;10.40;99.90
52275;DHT22;38228;50.940;4.024;2022-12-29T04:01:56;10.30;99.90
52275;DHT22;38228;50.940;4.024;2022-12-29T04:04:21;10.40;99.90
52275;DHT22;38228;50.940;4.024;2022-12-29T04:06:47;10.40;99.90
52275;DHT22;38228;50.940;4.024;2022-12-29T04:09:13;10.40;99.90
52275;DHT22;38228;50.940;4.024;2022-12-29T04:11:38;10.40;99.90
52275;DHT22;38228;50.940;4.024;2022-12-29T04:14:04;10.40;99.90
52275;DHT22;38228;50.940;4.024;2022-12-29T04:16:29;10.40;99.90
52275;DHT22;38228;50.940;4.024;2022-12-29T04:18:55;10.30;99.90
52275;DHT22;38228;50.940;4.024;2022-12-29T04:21:20;10.30;99.90
52275;DHT22;38228;50.940;4.024;2022-12-29T04:23:46;10.30;99.90
52275;DHT22;38228;50.940;4.024;2022-12-29T04:26:11;10.50;99.90
52275;DHT22;38228;50.940;4.024;2022-12-29T04:28:37;10.50;99.90
52275;DHT22;38228;50.940;4.024;2022-12-29T04:31:03;10.60;99.90
52275;DHT22;38228;50.940;4.024;2022-12-29T04:33:29;10.60;99.90
52275;DHT22;38228;50.940;4.024;2022-12-29T04:35:54;10.60;99.90
52275;DHT22;38228;50.940;4.024;2022-12-29T04:38:21;10.60;99.90
52275;DHT22;38228;50.940;4.024;2022-12-29T04:40:47;10.70;99.90
52275;DHT22;38228;50.940;4.024;2022-12-29T04:43:13;10.60;99.90
52275;DHT22;38228;50.940;4.024;2022-12-29T04:45:43;10.70;99.90
52275;DHT22;38228;50.940;4.024;2022-12-29T04:48:08;10.70;99.90
52275;DHT22;38228;50.940;4.024;2022-12-29T04:50:34;10.60;99.90
52275;DHT22;38228;50.940;4.024;2022-12-29T04:52:59;10.60;99.90
52275;DHT22;38228;50.940;4.024;2022-12-29T04:55:25;10.50;99.90
52275;DHT22;38228;50.940;4.024;2022-12-29T04:57:50;10.60;99.90
52275;DHT22;38228;50.940;4.024;2022-12-29T05:00:16;10.60;99.90
52275;DHT22;38228;50.940;4.024;2022-12-29T05:02:41;10.60;99.90
52275;DHT22;38228;50.940;4.024;2022-12-29T05:05:07;10.50;99.90
52275;DHT22;38228;50.940;4.024;2022-12-29T05:07:33;10.50;99.90
52275;DHT22;38228;50.940;4.024;2022-12-29T05:09:58;10.60;99.90
52275;DHT22;38228;50.940;4.024;2022-12-29T05:12:24;10.60;99.90
52275;DHT22;38228;50.940;4.024;2022-12-29T05:14:49;10.60;99.90
52275;DHT22;38228;50.940;4.024;2022-12-29T05:17:15;10.70;99.90
52275;DHT22;38228;50.940;4.024;2022-12-29T05:19:41;10.80;99.90
52275;DHT22;38228;50.940;4.024;2022-12-29T05:22:06;10.70;99.90
52275;DHT22;38228;50.940;4.024;2022-12-29T05:24:32;10.70;99.90
52275;DHT22;38228;50.940;4.024;2022-12-29T05:26:57;10.60;99.90
52275;DHT22;38228;50.940;4.024;2022-12-29T05:29:23;10.60;99.90
52275;DHT22;38228;50.940;4.024;2022-12-29T05:31:48;10.60;99.90
52275;DHT22;38228;50.940;4.024;2022-12-29T05:34:14;10.60;99.90
52275;DHT22;38228;50.940;4.024;2022-12-29T05:36:39;10.60;99.90
52275;DHT22;38228;50.940;4.024;2022-12-29T05:39:05;10.60;99.90
52275;DHT22;38228;50.940;4.024;2022-12-29T05:41:33;10.60;99.90
52275;DHT22;38228;50.940;4.024;2022-12-29T05:43:58;10.50;99.90
52275;DHT22;38228;50.940;4.024;2022-12-29T05:46:24;10.50;99.90
52275;DHT22;38228;50.940;4.024;2022-12-29T05:48:49;10.60;99.90
52275;DHT22;38228;50.940;4.024;2022-12-29T05:51:15;10.60;99.90
52275;DHT22;38228;50.940;4.024;2022-12-29T05:53:40;10.50;99.90
52275;DHT22;38228;50.940;4.024;2022-12-29T05:56:06;10.60;99.90
52275;DHT22;38228;50.940;4.024;2022-12-29T05:58:31;10.60;99.90
52275;DHT22;38228;50.940;4.024;2022-12-29T06:00:57;10.60;99.90
52275;DHT22;38228;50.940;4.024;2022-12-29T06:03:22;10.50;99.90
52275;DHT22;38228;50.940;4.024;2022-12-29T06:05:48;10.50;99.90
52275;DHT22;38228;50.940;4.024;2022-12-29T06:08:13;10.60;99.90
52275;DHT22;38228;50.940;4.024;2022-12-29T06:10:39;10.60;99.90
52275;DHT22;38228;50.940;4.024;2022-12-29T06:13:04;10.50;99.90
52275;DHT22;38228;50.940;4.024;2022-12-29T06:15:31;10.50;99.90
52275;DHT22;38228;50.940;4.024;2022-12-29T06:17:57;10.50;99.90
52275;DHT22;38228;50.940;4.024;2022-12-29T06:20:22;10.50;99.90
52275;DHT22;38228;50.940;4.024;2022-12-29T06:22:48;10.60;99.90
52275;DHT22;38228;50.940;4.024;2022-12-29T06:25:14;10.60;99.90
52275;DHT22;38228;50.940;4.024;2022-12-29T06:27:40;10.60;99.90
52275;DHT22;38228;50.940;4.024;2022-12-29T06:30:06;10.60;99.90
52275;DHT22;38228;50.940;4.024;2022-12-29T06:32:32;10.60;99.90
52275;DHT22;38228;50.940;4.024;2022-12-29T06:34:57;10.60;99.90
52275;DHT22;38228;50.940;4.024;2022-12-29T06:37:23;10.60;99.90
52275;DHT22;38228;50.940;4.024;2022-12-29T06:39:48;10.60;99.90
52275;DHT22;38228;50.940;4.024;2022-12-29T06:42:14;10.70;99.90
52275;DHT22;38228;50.940;4.024;2022-12-29T06:44:39;10.70;99.90
52275;DHT22;38228;50.940;4.024;2022-12-29T06:47:05;10.70;99.90
52275;DHT22;38228;50.940;4.024;2022-12-29T06:49:30;10.70;99.90
52275;DHT22;38228;50.940;4.024;2022-12-29T06:51:56;10.60;99.90
52275;DHT22;38228;50.940;4.024;2022-12-29T06:54:23;10.60;99.90
52275;DHT22;38228;50.940;4.024;2022-12-29T06:56:49;10.60;99.90
52275;DHT22;38228;50.940;4.024;2022-12-29T06:59:14;10.70;99.90
52275;DHT22;38228;50.940;4.024;2022-12-29T07:01:40;10.60;99.90
52275;DHT22;38228;50.940;4.024;2022-12-29T07:04:05;10.60;99.90
52275;DHT22;38228;50.940;4.024;2022-12-29T07:06:31;10.70;99.90
52275;DHT22;38228;50.940;4.024;2022-12-29T07:08:56;10.70;99.90
52275;DHT22;38228;50.940;4.024;2022-12-29T07:11:22;10.60;99.90
52275;DHT22;38228;50.940;4.024;2022-12-29T07:13:48;10.70;99.90
52275;DHT22;38228;50.940;4.024;2022-12-29T07:16:14;10.60;99.90
52275;DHT22;38228;50.940;4.024;2022-12-29T07:18:39;10.70;99.90
52275;DHT22;38228;50.940;4.024;2022-12-29T07:21:05;10.60;99.90
52275;DHT22;38228;50.940;4.024;2022-12-29T07:23:31;10.60;99.90
52275;DHT22;38228;50.940;4.024;2022-12-29T07:26:03;10.60;99.90
52275;DHT22;38228;50.940;4.024;2022-12-29T07:28:29;10.60;99.90
52275;DHT22;38228;50.940;4.024;2022-12-29T07:30:54;10.60;99.90
52275;DHT22;38228;50.940;4.024;2022-12-29T07:33:20;10.60;99.90
52275;DHT22;38228;50.940;4.024;2022-12-29T07:35:46;10.60;99.90
52275;DHT22;38228;50.940;4.024;2022-12-29T07:38:11;10.70;99.90
52275;DHT22;38228;50.940;4.024;2022-12-29T07:40:37;10.70;99.90
52275;DHT22;38228;50.940;4.024;2022-12-29T07:43:03;10.70;99.90
52275;DHT22;38228;50.940;4.024;2022-12-29T07:45:29;10.70;99.90
52275;DHT22;38228;50.940;4.024;2022-12-29T07:47:55;10.70;99.90
52275;DHT22;38228;50.940;4.024;2022-12-29T07:50:20;10.70;99.90
52275;DHT22;38228;50.940;4.024;2022-12-29T07:52:46;10.70;99.90
52275;DHT22;38228;50.940;4.024;2022-12-29T07:55:13;10.80;99.90
52275;DHT22;38228;50.940;4.024;2022-12-29T07:57:39;10.70;99.90
52275;DHT22;38228;50.940;4.024;2022-12-29T08:00:04;10.80;99.90
52275;DHT22;38228;50.940;4.024;2022-12-29T08:02:30;10.80;99.90
52275;DHT22;38228;50.940;4.024;2022-12-29T08:04:56;10.90;99.90
52275;DHT22;38228;50.940;4.024;2022-12-29T08:07:21;10.90;99.90
52275;DHT22;38228;50.940;4.024;2022-12-29T08:09:47;10.80;99.90
52275;DHT22;38228;50.940;4.024;2022-12-29T08:12:12;10.80;99.90
52275;DHT22;38228;50.940;4.024;2022-12-29T08:14:38;10.90;99.90
52275;DHT22;38228;50.940;4.024;2022-12-29T08:17:03;10.80;99.90
52275;DHT22;38228;50.940;4.024;2022-12-29T08:19:29;10.80;99.90
52275;DHT22;38228;50.940;4.024;2022-12-29T08:21:54;10.80;99.90
52275;DHT22;38228;50.940;4.024;2022-12-29T08:24:20;10.70;99.90
52275;DHT22;38228;50.940;4.024;2022-12-29T08:26:45;10.70;99.90
52275;DHT22;38228;50.940;4.024;2022-12-29T08:29:11;10.70;99.90
52275;DHT22;38228;50.940;4.024;2022-12-29T08:31:37;10.60;99.90
52275;DHT22;38228;50.940;4.024;2022-12-29T08:34:02;10.70;99.90
52275;DHT22;38228;50.940;4.024;2022-12-29T08:36:28;10.70;99.90
52275;DHT22;38228;50.940;4.024;2022-12-29T08:38:54;10.70;99.90
52275;DHT22;38228;50.940;4.024;2022-12-29T08:41:20;10.70;99.90
52275;DHT22;38228;50.940;4.024;2022-12-29T08:43:46;10.60;99.90
52275;DHT22;38228;50.940;4.024;2022-12-29T08:46:12;10.60;99.90
52275;DHT22;38228;50.940;4.024;2022-12-29T08:48:38;10.50;99.90
52275;DHT22;38228;50.940;4.024;2022-12-29T08:51:03;10.40;99.90
52275;DHT22;38228;50.940;4.024;2022-12-29T08:53:29;10.50;99.90
52275;DHT22;38228;50.940;4.024;2022-12-29T08:55:55;10.40;99.90
52275;DHT22;38228;50.940;4.024;2022-12-29T08:58:21;10.30;99.90
52275;DHT22;38228;50.940;4.024;2022-12-29T09:00:47;10.30;99.90
52275;DHT22;38228;50.940;4.024;2022-12-29T09:03:12;10.20;99.90
52275;DHT22;38228;50.940;4.024;2022-12-29T09:05:38;10.20;99.90
52275;DHT22;38228;50.940;4.024;2022-12-29T09:08:03;10.20;99.90
52275;DHT22;38228;50.940;4.024;2022-12-29T09:10:29;10.20;99.90
52275;DHT22;38228;50.940;4.024;2022-12-29T09:12:55;10.10;99.90
52275;DHT22;38228;50.940;4.024;2022-12-29T09:15:21;10.20;99.90
52275;DHT22;38228;50.940;4.024;2022-12-29T09:17:46;10.10;99.90
52275;DHT22;38228;50.940;4.024;2022-12-29T09:20:16;10.10;99.90
52275;DHT22;38228;50.940;4.024;2022-12-29T09:22:42;10.10;99.90
52275;DHT22;38228;50.940;4.024;2022-12-29T09:25:08;10.20;99.90
52275;DHT22;38228;50.940;4.024;2022-12-29T09:27:34;10.20;99.90
52275;DHT22;38228;50.940;4.024;2022-12-29T09:30:00;10.20;99.90
52275;DHT22;38228;50.940;4.024;2022-12-29T09:32:25;10.20;99.90
52275;DHT22;38228;50.940;4.024;2022-12-29T09:34:51;10.10;99.90
52275;DHT22;38228;50.940;4.024;2022-12-29T09:37:16;10.00;99.90
52275;DHT22;38228;50.940;4.024;2022-12-29T09:39:42;9.90;99.90
52275;DHT22;38228;50.940;4.024;2022-12-29T09:47:23;9.90;99.90
52275;DHT22;38228;50.940;4.024;2022-12-29T09:50:24;9.90;99.90
52275;DHT22;38228;50.940;4.024;2022-12-29T09:52:43;10.00;99.90
52275;DHT22;38228;50.940;4.024;2022-12-29T09:57:41;10.00;99.90
52275;DHT22;38228;50.940;4.024;2022-12-29T10:00:12;10.20;99.90
52275;DHT22;38228;50.940;4.024;2022-12-29T10:05:26;10.30;99.90
52275;DHT22;38228;50.940;4.024;2022-12-29T10:07:59;10.40;99.90
52275;DHT22;38228;50.940;4.024;2022-12-29T10:10:30;10.40;99.90
52275;DHT22;38228;50.940;4.024;2022-12-29T10:15:50;10.50;99.90
52275;DHT22;38228;50.940;4.024;2022-12-29T10:21:15;10.50;99.90
52275;DHT22;38228;50.940;4.024;2022-12-29T10:23:46;10.50;99.90
52275;DHT22;38228;50.940;4.024;2022-12-29T10:26:17;10.70;99.90
52275;DHT22;38228;50.940;4.024;2022-12-29T10:28:45;10.70;99.90
52275;DHT22;38228;50.940;4.024;2022-12-29T10:31:16;10.70;99.90
52275;DHT22;38228;50.940;4.024;2022-12-29T10:33:45;10.70;99.90
52275;DHT22;38228;50.940;4.024;2022-12-29T10:41:46;10.90;99.90
52275;DHT22;38228;50.940;4.024;2022-12-29T10:44:15;10.90;99.90
52275;DHT22;38228;50.940;4.024;2022-12-29T10:46:42;10.90;99.90
52275;DHT22;38228;50.940;4.024;2022-12-29T10:49:14;10.90;99.90
52275;DHT22;38228;50.940;4.024;2022-12-29T10:51:42;10.90;99.90
52275;DHT22;38228;50.940;4.024;2022-12-29T10:54:27;11.00;99.90
52275;DHT22;38228;50.940;4.024;2022-12-29T10:57:03;10.90;99.90
52275;DHT22;38228;50.940;4.024;2022-12-29T10:59:30;11.00;99.90
52275;DHT22;38228;50.940;4.024;2022-12-29T11:07:03;10.80;99.90
52275;DHT22;38228;50.940;4.024;2022-12-29T11:09:29;10.80;99.90
52275;DHT22;38228;50.940;4.024;2022-12-29T11:11:56;10.80;99.90
52275;DHT22;38228;50.940;4.024;2022-12-29T11:14:29;10.80;99.90
52275;DHT22;38228;50.940;4.024;2022-12-29T11:16:59;10.80;99.90
52275;DHT22;38228;50.940;4.024;2022-12-29T11:19:26;10.90;99.90
52275;DHT22;38228;50.940;4.024;2022-12-29T11:21:52;11.00;99.90
52275;DHT22;38228;50.940;4.024;2022-12-29T11:24:19;11.10;99.90
52275;DHT22;38228;50.940;4.024;2022-12-29T11:26:45;11.10;99.90
52275;DHT22;38228;50.940;4.024;2022-12-29T11:29:20;11.10;99.90
52275;DHT22;38228;50.940;4.024;2022-12-29T11:31:47;11.00;99.90
52275;DHT22;38228;50.940;4.024;2022-12-29T11:34:17;11.10;99.90
52275;DHT22;38228;50.940;4.024;2022-12-29T11:36:43;11.10;99.90
52275;DHT22;38228;50.940;4.024;2022-12-29T11:39:16;11.20;99.90
52275;DHT22;38228;50.940;4.024;2022-12-29T11:41:51;11.20;99.90
52275;DHT22;38228;50.940;4.024;2022-12-29T11:44:17;11.20;99.90
52275;DHT22;38228;50.940;4.024;2022-12-29T11:46:44;11.20;99.90
52275;DHT22;38228;50.940;4.024;2022-12-29T11:49:12;11.30;99.90
52275;DHT22;38228;50.940;4.024;2022-12-29T11:54:04;11.30;99.90
52275;DHT22;38228;50.940;4.024;2022-12-29T11:56:37;11.30;99.90
52275;DHT22;38228;50.940;4.024;2022-12-29T12:01:47;11.50;99.90
52275;DHT22;38228;50.940;4.024;2022-12-29T12:04:16;11.50;99.90
52275;DHT22;38228;50.940;4.024;2022-12-29T12:07:17;11.50;99.90
52275;DHT22;38228;50.940;4.024;2022-12-29T12:09:45;11.50;99.90
52275;DHT22;38228;50.940;4.024;2022-12-29T12:12:20;11.40;99.90
52275;DHT22;38228;50.940;4.024;2022-12-29T12:14:51;11.40;99.90
52275;DHT22;38228;50.940;4.024;2022-12-29T12:17:21;11.10;99.90
52275;DHT22;38228;50.940;4.024;2022-12-29T12:22:34;11.00;99.90
52275;DHT22;38228;50.940;4.024;2022-12-29T12:25:04;11.00;99.90
52275;DHT22;38228;50.940;4.024;2022-12-29T12:27:39;11.00;99.90
52275;DHT22;38228;50.940;4.024;2022-12-29T12:30:16;11.00;99.90
52275;DHT22;38228;50.940;4.024;2022-12-29T12:32:50;11.00;99.90
52275;DHT22;38228;50.940;4.024;2022-12-29T12:35:23;11.00;99.90
52275;DHT22;38228;50.940;4.024;2022-12-29T13:00:25;11.10;99.90
52275;DHT22;38228;50.940;4.024;2022-12-29T13:05:28;11.10;99.90
52275;DHT22;38228;50.940;4.024;2022-12-29T13:10:42;11.10;99.90
52275;DHT22;38228;50.940;4.024;2022-12-29T13:13:20;11.20;99.90
52275;DHT22;38228;50.940;4.024;2022-12-29T13:18:23;11.00;99.90
52275;DHT22;38228;50.940;4.024;2022-12-29T13:20:54;10.90;99.90
52275;DHT22;38228;50.940;4.024;2022-12-29T13:24:23;10.80;99.90
52275;DHT22;38228;50.940;4.024;2022-12-29T13:26:20;10.80;99.90
52275;DHT22;38228;50.940;4.024;2022-12-29T13:29:04;10.70;99.90
52275;DHT22;38228;50.940;4.024;2022-12-29T13:39:25;10.80;99.90
52275;DHT22;38228;50.940;4.024;2022-12-29T13:41:55;10.70;99.90
52275;DHT22;38228;50.940;4.024;2022-12-29T13:44:34;10.60;99.90
52275;DHT22;38228;50.940;4.024;2022-12-29T13:47:07;10.50;99.90
52275;DHT22;38228;50.940;4.024;2022-12-29T13:49:38;10.40;99.90
52275;DHT22;38228;50.940;4.024;2022-12-29T13:55:01;9.70;99.90
52275;DHT22;38228;50.940;4.024;2022-12-29T13:59:59;9.20;99.90
52275;DHT22;38228;50.940;4.024;2022-12-29T14:02:37;9.30;99.90
52275;DHT22;38228;50.940;4.024;2022-12-29T14:07:45;9.10;99.90
52275;DHT22;38228;50.940;4.024;2022-12-29T14:13:28;9.00;99.90
52275;DHT22;38228;50.940;4.024;2022-12-29T14:15:54;9.00;99.90
52275;DHT22;38228;50.940;4.024;2022-12-29T14:18:24;8.90;99.90
52275;DHT22;38228;50.940;4.024;2022-12-29T14:23:17;8.80;99.90
52275;DHT22;38228;50.940;4.024;2022-12-29T14:28:25;8.70;99.90
52275;DHT22;38228;50.940;4.024;2022-12-29T14:30:52;8.80;99.90
52275;DHT22;38228;50.940;4.024;2022-12-29T14:33:18;8.80;99.90
52275;DHT22;38228;50.940;4.024;2022-12-29T14:35:45;8.90;99.90
52275;DHT22;38228;50.940;4.024;2022-12-29T14:38:25;9.00;99.90
52275;DHT22;38228;50.940;4.024;2022-12-29T14:40:51;9.00;99.90
52275;DHT22;38228;50.940;4.024;2022-12-29T14:43:22;9.10;99.90
52275;DHT22;38228;50.940;4.024;2022-12-29T14:45:51;9.10;99.90
52275;DHT22;38228;50.940;4.024;2022-12-29T14:48:21;9.10;99.90
52275;DHT22;38228;50.940;4.024;2022-12-29T14:50:53;9.00;99.90
52275;DHT22;38228;50.940;4.024;2022-12-29T14:56:20;9.10;99.90
52275;DHT22;38228;50.940;4.024;2022-12-29T14:58:52;9.10;99.90
52275;DHT22;38228;50.940;4.024;2022-12-29T15:01:20;9.10;99.90
52275;DHT22;38228;50.940;4.024;2022-12-29T15:03:48;9.00;99.90
52275;DHT22;38228;50.940;4.024;2022-12-29T15:06:17;9.00;99.90
52275;DHT22;38228;50.940;4.024;2022-12-29T15:09:30;8.90;99.90
52275;DHT22;38228;50.940;4.024;2022-12-29T15:14:02;8.90;99.90
52275;DHT22;38228;50.940;4.024;2022-12-29T15:18:53;9.00;99.90
52275;DHT22;38228;50.940;4.024;2022-12-29T15:21:21;8.90;99.90
52275;DHT22;38228;50.940;4.024;2022-12-29T15:23:48;8.90;99.90
52275;DHT22;38228;50.940;4.024;2022-12-29T15:26:14;9.00;99.90
52275;DHT22;38228;50.940;4.024;2022-12-29T15:28:46;8.90;99.90
52275;DHT22;38228;50.940;4.024;2022-12-29T15:33:45;9.00;99.90
52275;DHT22;38228;50.940;4.024;2022-12-29T15:36:22;9.00;99.90
52275;DHT22;38228;50.940;4.024;2022-12-29T15:38:48;8.90;99.90
52275;DHT22;38228;50.940;4.024;2022-12-29T15:46:23;8.80;99.90
52275;DHT22;38228;50.940;4.024;2022-12-29T15:48:49;8.70;99.90
52275;DHT22;38228;50.940;4.024;2022-12-29T15:51:16;8.60;99.90
52275;DHT22;38228;50.940;4.024;2022-12-29T15:53:43;8.60;99.90
52275;DHT22;38228;50.940;4.024;2022-12-29T15:56:11;8.60;99.90
52275;DHT22;38228;50.940;4.024;2022-12-29T15:58:41;8.60;99.90
52275;DHT22;38228;50.940;4.024;2022-12-29T16:03:54;8.70;99.90
52275;DHT22;38228;50.940;4.024;2022-12-29T16:08:54;8.60;99.90
52275;DHT22;38228;50.940;4.024;2022-12-29T16:11:27;8.60;99.90
52275;DHT22;38228;50.940;4.024;2022-12-29T16:13:55;8.70;99.90
52275;DHT22;38228;50.940;4.024;2022-12-29T16:16:28;8.70;99.90
52275;DHT22;38228;50.940;4.024;2022-12-29T16:18:54;8.50;99.90
52275;DHT22;38228;50.940;4.024;2022-12-29T16:21:32;8.60;99.90
52275;DHT22;38228;50.940;4.024;2022-12-29T16:24:17;8.60;99.90
52275;DHT22;38228;50.940;4.024;2022-12-29T16:26:50;8.60;99.90
52275;DHT22;38228;50.940;4.024;2022-12-29T16:29:16;8.40;99.90
52275;DHT22;38228;50.940;4.024;2022-12-29T16:31:50;8.50;99.90
52275;DHT22;38228;50.940;4.024;2022-12-29T16:36:57;8.50;99.90
52275;DHT22;38228;50.940;4.024;2022-12-29T16:41:49;8.50;99.90
52275;DHT22;38228;50.940;4.024;2022-12-29T16:44:16;8.40;99.90
52275;DHT22;38228;50.940;4.024;2022-12-29T16:49:23;8.50;99.90
52275;DHT22;38228;50.940;4.024;2022-12-29T16:51:48;8.30;99.90
52275;DHT22;38228;50.940;4.024;2022-12-29T16:54:23;8.40;99.90
52275;DHT22;38228;50.940;4.024;2022-12-29T16:56:49;8.40;99.90
52275;DHT22;38228;50.940;4.024;2022-12-29T16:59:23;8.40;99.90
52275;DHT22;38228;50.940;4.024;2022-12-29T17:01:50;8.40;99.90
52275;DHT22;38228;50.940;4.024;2022-12-29T17:04:16;8.40;99.90
52275;DHT22;38228;50.940;4.024;2022-12-29T17:06:42;8.50;99.90
52275;DHT22;38228;50.940;4.024;2022-12-29T17:09:17;8.50;99.90
52275;DHT22;38228;50.940;4.024;2022-12-29T17:11:45;8.60;99.90
52275;DHT22;38228;50.940;4.024;2022-12-29T17:16:48;8.50;99.90
52275;DHT22;38228;50.940;4.024;2022-12-29T17:19:15;8.60;99.90
52275;DHT22;38228;50.940;4.024;2022-12-29T17:21:41;8.60;99.90
52275;DHT22;38228;50.940;4.024;2022-12-29T17:24:11;8.60;99.90
52275;DHT22;38228;50.940;4.024;2022-12-29T17:26:40;8.70;99.90
52275;DHT22;38228;50.940;4.024;2022-12-29T17:29:06;8.60;99.90
52275;DHT22;38228;50.940;4.024;2022-12-29T17:31:31;8.70;99.90
52275;DHT22;38228;50.940;4.024;2022-12-29T17:33:57;8.70;99.90
52275;DHT22;38228;50.940;4.024;2022-12-29T17:36:23;8.70;99.90
52275;DHT22;38228;50.940;4.024;2022-12-29T17:38:48;8.60;99.90
52275;DHT22;38228;50.940;4.024;2022-12-29T17:41:14;8.50;99.90
52275;DHT22;38228;50.940;4.024;2022-12-29T17:43:40;8.50;99.90
52275;DHT22;38228;50.940;4.024;2022-12-29T17:46:06;8.50;99.90
52275;DHT22;38228;50.940;4.024;2022-12-29T17:48:32;8.50;99.90
52275;DHT22;38228;50.940;4.024;2022-12-29T17:50:58;8.60;99.90
52275;DHT22;38228;50.940;4.024;2022-12-29T17:53:25;8.60;99.90
52275;DHT22;38228;50.940;4.024;2022-12-29T17:55:51;8.50;99.90
52275;DHT22;38228;50.940;4.024;2022-12-29T18:00:42;8.50;99.90
52275;DHT22;38228;50.940;4.024;2022-12-29T18:03:10;8.50;99.90
52275;DHT22;38228;50.940;4.024;2022-12-29T18:05:38;8.50;99.90
52275;DHT22;38228;50.940;4.024;2022-12-29T18:08:03;8.50;99.90
52275;DHT22;38228;50.940;4.024;2022-12-29T18:10:29;8.50;99.90
52275;DHT22;38228;50.940;4.024;2022-12-29T18:12:57;8.50;99.90
52275;DHT22;38228;50.940;4.024;2022-12-29T18:15:27;8.60;99.90
52275;DHT22;38228;50.940;4.024;2022-12-29T18:20:42;8.50;99.90
52275;DHT22;38228;50.940;4.024;2022-12-29T18:25:56;8.50;99.90